createdAt,value
2022-10-05T00:00:06.368Z,101003.03
2022-10-05T00:03:11.775Z,101007.63
2022-10-05T00:06:13.184Z,101013.69
2022-10-05T00:09:20.937Z,101007.63
2022-10-05T00:12:22.887Z,101006.66
2022-10-05T00:15:24.377Z,101005.03
2022-10-05T00:18:26.949Z,101012.97
2022-10-05T00:21:29.000Z,101012.13
2022-10-05T00:24:30.398Z,101012.97
2022-10-05T00:27:35.038Z,101006.03
2022-10-05T00:30:36.490Z,101019.25
2022-10-05T00:33:37.899Z,101019.16
2022-10-05T00:36:40.115Z,101016.56
2022-10-05T00:39:42.490Z,101008.59
2022-10-05T00:43:10.274Z,101008.59
2022-10-05T00:46:23.903Z,101003.34
2022-10-05T00:49:25.350Z,101004.16
2022-10-05T00:53:17.212Z,101015.72
2022-10-05T00:56:36.522Z,101010.72
2022-10-05T00:59:47.288Z,101007.22
2022-10-05T01:03:05.156Z,101005.59
2022-10-05T01:06:34.800Z,101009.13
2022-10-05T01:10:05.627Z,100997.97
2022-10-05T01:13:32.748Z,100991.91
2022-10-05T01:16:59.906Z,100984.09
2022-10-05T01:20:15.360Z,100982.41
2022-10-05T01:23:19.636Z,100978.06
2022-10-05T01:26:23.973Z,100981.75
2022-10-05T01:29:51.556Z,100981.09
2022-10-05T01:33:10.585Z,100975.81
2022-10-05T01:36:25.594Z,100972.25
2022-10-05T01:40:05.052Z,100979.28
2022-10-05T01:43:32.744Z,100984.59
2022-10-05T01:46:58.413Z,100994.22
2022-10-05T01:50:11.962Z,100982.81
2022-10-05T01:53:44.250Z,100971.38
2022-10-05T01:57:09.958Z,100989.13
2022-10-05T02:00:14.768Z,100985.63
2022-10-05T02:03:20.987Z,100989.19
2022-10-05T02:06:26.297Z,100993.81
2022-10-05T02:09:37.317Z,101003.44
2022-10-05T02:12:39.505Z,100996.31
2022-10-05T02:15:58.140Z,100984.00
2022-10-05T02:19:08.184Z,100988.38
2022-10-05T02:22:26.348Z,100987.56
2022-10-05T02:25:33.082Z,100990.34
2022-10-05T02:28:39.903Z,100989.53
2022-10-05T02:31:48.819Z,100990.81
2022-10-05T02:34:50.768Z,100994.31
2022-10-05T02:38:11.762Z,100987.28
2022-10-05T02:41:32.310Z,100985.69
2022-10-05T02:45:04.506Z,100974.53
2022-10-05T02:48:24.369Z,100976.44
2022-10-05T02:51:48.750Z,100969.47
2022-10-05T02:55:17.904Z,100953.81
2022-10-05T02:58:23.290Z,100951.97
2022-10-05T03:01:34.656Z,100952.06
2022-10-05T03:04:48.305Z,100953.06
2022-10-05T03:08:08.721Z,100949.63
2022-10-05T03:11:22.948Z,100958.34
2022-10-05T03:14:47.717Z,100956.66
2022-10-05T03:18:14.334Z,100950.53
2022-10-05T03:21:48.398Z,100955.81
2022-10-05T03:24:59.026Z,100954.81
2022-10-05T03:28:23.860Z,100945.31
2022-10-05T03:31:49.331Z,100943.47
2022-10-05T03:34:58.468Z,100936.50
2022-10-05T03:38:15.191Z,100932.91
2022-10-05T03:41:22.841Z,100931.25
2022-10-05T03:44:44.237Z,100923.41
2022-10-05T03:48:05.226Z,100928.59
2022-10-05T03:51:40.880Z,100930.38
2022-10-05T03:54:48.357Z,100937.25
2022-10-05T03:57:52.357Z,100938.00
2022-10-05T04:01:01.800Z,100938.84
2022-10-05T04:04:07.069Z,100944.16
2022-10-05T04:07:23.465Z,100946.84
2022-10-05T04:10:33.186Z,100941.63
2022-10-05T04:13:40.327Z,100945.28
2022-10-05T04:16:45.669Z,100957.56
2022-10-05T04:19:59.819Z,100944.41
2022-10-05T04:23:11.235Z,100950.59
2022-10-05T04:26:24.785Z,100943.63
2022-10-05T04:29:36.159Z,100941.03
2022-10-05T04:32:42.837Z,100953.34
2022-10-05T04:35:57.587Z,100943.69
2022-10-05T04:39:18.690Z,100945.53
2022-10-05T04:42:32.764Z,100953.38
2022-10-05T04:46:05.092Z,100957.72
2022-10-05T04:49:28.702Z,100942.75
2022-10-05T04:53:05.762Z,100947.16
2022-10-05T04:56:49.554Z,100951.47
2022-10-05T05:00:08.622Z,100954.94
2022-10-05T05:03:38.927Z,100951.38
2022-10-05T05:06:58.166Z,100960.25
2022-10-05T05:10:23.818Z,100960.19
2022-10-05T05:13:47.022Z,100959.34
2022-10-05T05:17:22.340Z,100962.91
2022-10-05T05:20:53.897Z,100970.00
2022-10-05T05:24:13.996Z,100967.38
2022-10-05T05:27:39.178Z,100984.97
2022-10-05T05:31:05.088Z,100980.63
2022-10-05T05:34:18.234Z,100985.00
2022-10-05T05:37:28.851Z,100989.41
2022-10-05T05:40:35.142Z,100989.50
2022-10-05T05:44:04.032Z,100990.44
2022-10-05T05:47:24.277Z,100997.47
2022-10-05T05:50:40.398Z,101012.41
2022-10-05T05:53:48.855Z,101013.38
2022-10-05T05:57:10.688Z,101016.94
2022-10-05T06:00:13.862Z,101019.41
2022-10-05T06:03:37.142Z,101020.16
2022-10-05T06:06:44.553Z,101023.63
2022-10-05T06:09:54.242Z,101025.31
2022-10-05T06:13:06.418Z,101022.66
2022-10-05T06:16:21.052Z,101026.13
2022-10-05T06:19:26.318Z,101030.50
2022-10-05T06:22:43.834Z,101035.72
2022-10-05T06:26:15.008Z,101034.78
2022-10-05T06:29:22.932Z,101032.91
2022-10-05T06:32:50.689Z,101031.00
2022-10-05T06:36:18.547Z,101034.50
2022-10-05T06:39:48.412Z,101036.13
2022-10-05T06:43:16.216Z,101042.03
2022-10-05T06:46:55.490Z,101041.75
2022-10-05T06:50:41.446Z,101041.22
2022-10-05T06:54:20.109Z,101042.50
2022-10-05T06:57:37.819Z,101043.13
2022-10-05T07:00:54.026Z,101035.72
2022-10-05T07:04:36.759Z,101026.66
2022-10-05T07:07:59.393Z,101029.91
2022-10-05T07:11:25.167Z,101033.19
2022-10-05T07:14:56.538Z,101033.78
2022-10-05T07:18:13.498Z,101036.00
2022-10-05T07:21:58.280Z,101038.09
2022-10-05T07:25:30.962Z,101047.28
2022-10-05T07:28:50.698Z,101047.56
2022-10-05T07:32:15.542Z,101049.72
2022-10-05T07:35:51.444Z,101043.06
2022-10-05T07:39:36.803Z,101033.59
2022-10-05T07:43:18.347Z,101032.25
2022-10-05T07:46:34.860Z,101035.41
2022-10-05T07:49:51.872Z,101038.84
2022-10-05T07:52:57.526Z,101038.03
2022-10-05T07:56:13.364Z,101041.84
2022-10-05T07:59:24.310Z,101042.16
2022-10-05T08:02:34.144Z,101037.13
2022-10-05T08:05:41.446Z,101035.31
2022-10-05T08:09:04.770Z,101032.72
2022-10-05T08:12:23.970Z,101040.44
2022-10-05T08:15:34.517Z,101033.78
2022-10-05T08:18:48.462Z,101037.31
2022-10-05T08:22:02.860Z,101020.78
2022-10-05T08:25:10.095Z,101028.34
2022-10-05T08:28:22.987Z,101019.84
2022-10-05T08:31:29.675Z,101015.50
2022-10-05T08:34:45.703Z,101012.53
2022-10-05T08:37:48.873Z,101017.22
2022-10-05T08:41:01.896Z,101026.63
2022-10-05T08:44:31.284Z,101036.94
2022-10-05T08:48:04.690Z,101025.00
2022-10-05T08:51:26.339Z,101026.75
2022-10-05T08:54:46.589Z,101024.47
2022-10-05T08:58:03.750Z,101016.56
2022-10-05T09:01:21.211Z,101015.28
2022-10-05T09:05:07.767Z,101018.72
2022-10-05T09:08:54.147Z,101012.59
2022-10-05T09:12:42.810Z,101010.94
2022-10-05T09:16:13.726Z,101010.28
2022-10-05T09:19:30.368Z,101013.25
2022-10-05T09:22:40.056Z,101007.16
2022-10-05T09:26:06.977Z,101008.75
2022-10-05T09:29:33.069Z,101004.34
2022-10-05T09:32:59.207Z,100998.69
2022-10-05T09:36:27.224Z,100991.72
2022-10-05T09:40:08.318Z,100991.47
2022-10-05T09:43:47.601Z,100984.47
2022-10-05T09:47:16.762Z,100980.16
2022-10-05T09:50:48.814Z,100992.38
2022-10-05T09:54:34.981Z,100985.13
2022-10-05T09:57:57.913Z,100974.13
2022-10-05T10:01:15.833Z,100972.31
2022-10-05T10:04:41.682Z,100969.22
2022-10-05T10:08:20.803Z,100968.72
2022-10-05T10:11:59.177Z,100955.94
2022-10-05T10:15:23.927Z,100956.72
2022-10-05T10:18:36.553Z,100947.84
2022-10-05T10:21:44.854Z,100952.31
2022-10-05T10:25:24.395Z,100950.41
2022-10-05T10:29:07.683Z,100941.06
2022-10-05T10:32:24.169Z,100940.56
2022-10-05T10:35:31.596Z,100940.97
2022-10-05T10:38:51.237Z,100941.88
2022-10-05T10:42:14.737Z,100942.06
2022-10-05T10:45:28.575Z,100939.75
2022-10-05T10:48:30.146Z,100933.13
2022-10-05T10:51:52.798Z,100941.91
2022-10-05T10:55:04.303Z,100934.66
2022-10-05T11:01:39.434Z,100924.97
2022-10-05T11:05:08.036Z,100928.88
2022-10-05T11:08:46.287Z,100930.81
2022-10-05T11:12:17.811Z,100922.59
2022-10-05T11:15:31.145Z,100925.03
2022-10-05T11:19:03.117Z,100922.75
2022-10-05T11:22:23.384Z,100920.13
2022-10-05T11:25:47.127Z,100918.63
2022-10-05T11:29:11.442Z,100921.47
2022-10-05T11:32:50.030Z,100915.53
2022-10-05T11:36:11.813Z,100911.38
2022-10-05T11:39:36.880Z,100906.44
2022-10-05T11:43:21.523Z,100897.00
2022-10-05T11:46:29.790Z,100891.50
2022-10-05T11:49:38.998Z,100877.19
2022-10-05T11:52:48.018Z,100874.34
2022-10-05T11:56:21.756Z,100868.78
2022-10-05T12:00:18.100Z,100857.84
2022-10-05T12:03:43.065Z,100847.47
2022-10-05T12:07:02.809Z,100844.34
2022-10-05T12:10:14.579Z,100844.34
2022-10-05T12:13:25.150Z,100845.06
2022-10-05T12:16:32.492Z,100827.78
2022-10-05T12:20:02.213Z,100833.34
2022-10-05T12:23:17.632Z,100834.31
2022-10-05T12:26:51.886Z,100839.38
2022-10-05T12:30:01.503Z,100829.41
2022-10-05T12:33:28.858Z,100829.22
2022-10-05T12:37:02.870Z,100826.56
2022-10-05T12:40:22.550Z,100817.19
2022-10-05T12:43:33.044Z,100809.22
2022-10-05T12:46:52.754Z,100818.81
2022-10-05T12:50:07.007Z,100807.63
2022-10-05T12:53:20.458Z,100808.59
2022-10-05T12:56:53.288Z,100805.22
2022-10-05T12:59:59.465Z,100799.41
2022-10-05T13:03:12.470Z,100795.78
2022-10-05T13:06:17.688Z,100794.03
2022-10-05T13:09:56.398Z,100793.84
2022-10-05T13:13:36.528Z,100794.34
2022-10-05T13:16:59.291Z,100798.41
2022-10-05T13:20:18.210Z,100792.94
2022-10-05T13:23:40.759Z,100781.88
2022-10-05T13:26:46.296Z,100790.06
2022-10-05T13:29:58.221Z,100792.38
2022-10-05T13:33:07.248Z,100785.47
2022-10-05T13:36:23.695Z,100783.53
2022-10-05T13:39:31.086Z,100785.47
2022-10-05T13:42:55.180Z,100771.22
2022-10-05T13:46:25.660Z,100780.81
2022-10-05T13:49:36.242Z,100773.44
2022-10-05T13:52:56.552Z,100772.91
2022-10-05T13:56:25.155Z,100776.84
2022-10-05T13:59:26.477Z,100780.97
2022-10-05T14:02:38.538Z,100772.31
2022-10-05T14:05:55.880Z,100777.53
2022-10-05T14:09:00.679Z,100772.31
2022-10-05T14:12:05.025Z,100769.63
2022-10-05T14:15:28.397Z,100759.84
2022-10-05T14:18:31.782Z,100767.75
2022-10-05T14:21:47.158Z,100763.59
2022-10-05T14:24:54.297Z,100758.22
2022-10-05T14:28:19.331Z,100759.94
2022-10-05T14:31:28.659Z,100756.78
2022-10-05T14:34:35.850Z,100752.09
2022-10-05T14:37:52.890Z,100758.50
2022-10-05T14:41:05.104Z,100751.13
2022-10-05T14:44:09.711Z,100748.59
2022-10-05T14:47:23.173Z,100749.91
2022-10-05T14:50:26.308Z,100744.53
2022-10-05T14:53:43.560Z,100744.03
2022-10-05T14:56:54.239Z,100752.34
2022-10-05T15:00:03.977Z,100746.97
2022-10-05T15:03:09.605Z,100748.09
2022-10-05T15:06:37.671Z,100745.03
2022-10-05T15:09:44.786Z,100739.03
2022-10-05T15:12:48.318Z,100737.97
2022-10-05T15:15:59.926Z,100732.31
2022-10-05T15:19:16.154Z,100731.97
2022-10-05T15:22:31.580Z,100721.56
2022-10-05T15:25:46.687Z,100736.84
2022-10-05T15:28:54.308Z,100730.13
2022-10-05T15:32:15.661Z,100728.06
2022-10-05T15:35:45.531Z,100730.94
2022-10-05T15:39:10.618Z,100733.72
2022-10-05T15:42:16.152Z,100725.66
2022-10-05T15:45:20.638Z,100722.97
2022-10-05T15:48:35.753Z,100719.91
2022-10-05T15:52:18.486Z,100719.53
2022-10-05T15:55:42.151Z,100716.88
2022-10-05T15:59:30.412Z,100712.44
2022-10-05T16:02:54.963Z,100708.75
2022-10-05T16:06:18.055Z,100708.91
2022-10-05T16:09:38.164Z,100704.94
2022-10-05T16:13:07.689Z,100715.41
2022-10-05T16:16:34.023Z,100709.75
2022-10-05T16:19:59.585Z,100702.50
2022-10-05T16:23:12.390Z,100705.13
2022-10-05T16:26:43.036Z,100704.78
2022-10-05T16:30:16.696Z,100700.63
2022-10-05T16:33:46.751Z,100706.84
2022-10-05T16:36:54.285Z,100704.19
2022-10-05T16:40:02.623Z,100700.84
2022-10-05T16:43:22.938Z,100711.31
2022-10-05T16:46:38.178Z,100716.34
2022-10-05T16:50:09.077Z,100713.41
2022-10-05T16:53:19.025Z,100718.31
2022-10-05T16:56:27.015Z,100731.84
2022-10-05T16:59:47.214Z,100732.84
2022-10-05T17:03:12.735Z,100726.09
2022-10-05T17:06:34.277Z,100732.72
2022-10-05T17:09:49.457Z,100745.19
2022-10-05T17:13:02.979Z,100753.16
2022-10-05T17:16:46.756Z,100759.78
2022-10-05T17:20:06.950Z,100771.31
2022-10-05T17:23:42.588Z,100768.47
2022-10-05T17:26:57.338Z,100776.81
2022-10-05T17:30:31.478Z,100781.38
2022-10-05T17:33:34.377Z,100790.66
2022-10-05T17:36:57.705Z,100790.19
2022-10-05T17:39:59.232Z,100800.47
2022-10-05T17:43:16.281Z,100805.22
2022-10-05T17:46:38.119Z,100820.69
2022-10-05T17:50:16.351Z,100821.34
2022-10-05T17:53:52.887Z,100825.13
2022-10-05T17:57:24.607Z,100841.41
2022-10-05T18:00:32.072Z,100843.84
2022-10-05T18:03:51.334Z,100847.63
2022-10-05T18:06:55.665Z,100857.28
2022-10-05T18:10:20.048Z,100857.34
2022-10-05T18:13:49.954Z,100863.56
2022-10-05T18:17:11.582Z,100871.06
2022-10-05T18:20:28.539Z,100872.56
2022-10-05T18:23:35.239Z,100872.56
2022-10-05T18:26:45.073Z,100885.16
2022-10-05T18:30:05.188Z,100880.75
2022-10-05T18:33:29.708Z,100885.41
2022-10-05T18:37:03.610Z,100886.78
2022-10-05T18:40:31.600Z,100895.56
2022-10-05T18:43:37.314Z,100901.91
2022-10-05T18:47:03.336Z,100900.38
2022-10-05T18:50:21.411Z,100907.06
2022-10-05T18:53:38.420Z,100920.97
2022-10-05T18:56:49.921Z,100913.84
2022-10-05T19:00:07.087Z,100930.50
2022-10-05T19:03:23.445Z,100920.72
2022-10-05T19:06:39.561Z,100936.72
2022-10-05T19:10:17.866Z,100940.75
2022-10-05T19:13:50.865Z,100943.22
2022-10-05T19:17:07.037Z,100942.28
2022-10-05T19:20:27.850Z,100951.16
2022-10-05T19:23:44.694Z,100941.38
2022-10-05T19:27:01.411Z,100951.53
2022-10-05T19:30:17.916Z,100960.47
2022-10-05T19:33:50.034Z,100957.66
2022-10-05T19:37:14.584Z,100969.22
2022-10-05T19:40:40.967Z,100974.78
2022-10-05T19:43:56.669Z,100983.03
2022-10-05T19:47:29.381Z,100978.63
2022-10-05T19:50:33.710Z,100982.06
2022-10-05T19:53:46.712Z,100981.53
2022-10-05T19:56:52.702Z,100990.44
2022-10-05T19:59:57.849Z,100987.94
2022-10-05T20:03:14.334Z,101000.75
2022-10-05T20:06:15.885Z,100994.16
2022-10-05T20:09:22.254Z,101005.66
2022-10-05T20:12:50.666Z,101007.50
2022-10-05T20:16:35.930Z,101011.97
2022-10-05T20:19:57.450Z,101025.22
2022-10-05T20:23:18.185Z,101035.63
2022-10-05T20:27:02.574Z,101039.66
2022-10-05T20:30:05.942Z,101048.66
2022-10-05T20:33:11.537Z,101051.16
2022-10-05T20:36:13.083Z,101052.09
2022-10-05T20:39:16.732Z,101060.31
2022-10-05T20:42:19.262Z,101060.41
2022-10-05T20:45:21.115Z,101055.81
2022-10-05T20:48:22.501Z,101064.22
2022-10-05T20:51:24.515Z,101067.75
2022-10-05T20:54:26.711Z,101076.94
2022-10-05T20:57:28.110Z,101083.88
2022-10-05T21:00:49.563Z,101086.53
2022-10-05T21:03:50.981Z,101090.81
2022-10-05T21:06:53.525Z,101094.13
2022-10-05T21:09:55.624Z,101097.72
2022-10-05T21:12:57.022Z,101100.38
2022-10-05T21:15:58.455Z,101098.91
2022-10-05T21:18:59.857Z,101100.78
2022-10-05T21:22:02.368Z,101106.97
2022-10-05T21:25:04.087Z,101107.63
2022-10-05T21:28:06.299Z,101115.16
2022-10-05T21:31:08.916Z,101112.50
2022-10-05T21:34:10.400Z,101114.81
2022-10-05T21:37:11.921Z,101111.91
2022-10-05T21:40:13.367Z,101115.53
2022-10-05T21:43:14.838Z,101119.88
2022-10-05T21:46:22.808Z,101122.53
2022-10-05T21:49:25.754Z,101126.34
2022-10-05T21:52:27.141Z,101125.50
2022-10-05T21:55:28.841Z,101141.44
2022-10-05T21:58:31.129Z,101140.91
2022-10-05T22:01:35.913Z,101137.47
2022-10-05T22:04:37.397Z,101150.72
2022-10-05T22:07:38.785Z,101153.94
2022-10-05T22:10:40.189Z,101146.13
2022-10-05T22:13:47.604Z,101149.69
2022-10-05T22:16:49.398Z,101149.59
2022-10-05T22:19:51.343Z,101152.91
2022-10-05T22:22:53.850Z,101153.66
2022-10-05T22:25:55.289Z,101160.50
2022-10-05T22:28:56.990Z,101155.25
2022-10-05T22:31:58.420Z,101166.00
2022-10-05T22:34:59.892Z,101169.72
2022-10-05T22:38:02.881Z,101177.72
2022-10-05T22:41:04.305Z,101170.91
2022-10-05T22:44:06.667Z,101180.75
2022-10-05T22:47:08.124Z,101181.75
2022-10-05T22:50:09.726Z,101189.28
2022-10-05T22:53:12.277Z,101188.03
2022-10-05T22:56:13.959Z,101182.59
2022-10-05T22:59:15.378Z,101198.72
2022-10-05T23:02:18.562Z,101209.22
2022-10-05T23:05:19.984Z,101207.47
2022-10-05T23:08:21.368Z,101208.34
2022-10-05T23:11:25.856Z,101206.53
2022-10-05T23:14:29.203Z,101213.47
2022-10-05T23:17:33.392Z,101212.41
2022-10-05T23:20:34.873Z,101207.91
2022-10-05T23:23:38.115Z,101204.25
2022-10-05T23:26:39.504Z,101220.16
2022-10-05T23:29:40.905Z,101223.50
2022-10-05T23:32:44.056Z,101217.28
2022-10-05T23:35:45.500Z,101223.41
2022-10-05T23:38:47.797Z,101229.91
2022-10-05T23:41:49.181Z,101229.22
2022-10-05T23:44:50.877Z,101235.31
2022-10-05T23:47:52.325Z,101228.94
2022-10-05T23:50:55.607Z,101230.69
2022-10-05T23:53:57.003Z,101234.13
2022-10-05T23:56:58.394Z,101223.69
